Flight Track Log - Related Links

Times and Time Zones

All times are in EST time to prevent confusion due to time zone crossing. See the CSN6870 flight status page for this flight to view local times or setup timezone preferences in your user account.

Time Position Orientation Groundspeed Altitude Reporting Facility
EST Latitude Longitude Course Direction KTS MPH feet Rate Location/Type
Thu 10:37:00 AM 41.4697 80.7938 61° Northeast  Level Estimated
Thu 10:38:00 AM 41.5212 80.9198 61° Northeast  Level Estimated
Thu 10:39:00 AM 41.5725 81.0461 61° Northeast  Level Estimated
Thu 10:40:00 AM 41.6237 81.1725 62° Northeast  Level Estimated
Thu 10:41:00 AM 41.6747 81.2991 62° Northeast  Level Estimated
Thu 10:42:00 AM 41.7256 81.4259 62° Northeast  Level Estimated
Thu 10:43:00 AM 41.7764 81.5530 62° Northeast  Level Estimated
Thu 10:44:00 AM 41.8270 81.6802 62° Northeast  Level Estimated
Thu 10:45:00 AM 41.8775 81.8076 62° Northeast  Level Estimated
Thu 10:46:00 AM 41.9278 81.9353 62° Northeast  Level Estimated
Thu 10:47:00 AM 41.9780 82.0631 62° Northeast  Level Estimated
Thu 10:48:00 AM 42.0281 82.1912 62° Northeast  Level Estimated
Thu 10:49:00 AM 42.0780 82.3194 62° Northeast  Level Estimated
Thu 10:50:00 AM 42.1278 82.4478 62° Northeast  Level Estimated
Thu 10:51:00 AM 42.1774 82.5765 62° Northeast  Level Estimated
Thu 10:52:00 AM 42.2269 82.7053 63° Northeast  Level Estimated
Thu 10:53:00 AM 42.2762 82.8344 63° Northeast  Level Estimated
Thu 10:54:00 AM 42.3254 82.9636 63° Northeast  Level Estimated
Thu 10:55:00 AM 42.3745 83.0931 63° Northeast  Level Estimated
Thu 10:56:00 AM 42.4234 83.2227 63° Northeast  Level Estimated
Thu 10:57:00 AM 42.4721 83.3526 63° Northeast  Level Estimated
Thu 10:58:00 AM 42.5207 83.4827 63° Northeast  Level Estimated
Thu 10:59:00 AM 42.5692 83.6129 63° Northeast  Level Estimated
Thu 11:00:00 AM 42.6175 83.7434 63° Northeast  Level Estimated
Thu 11:01:00 AM 42.6657 83.8740 63° Northeast  Level Estimated
Thu 11:02:00 AM 42.7137 84.0049 63° Northeast  Level Estimated
Thu 11:03:00 AM 42.7616 84.1360 64° Northeast  Level Estimated
Thu 11:04:00 AM 42.8093 84.2673 64° Northeast  Level Estimated
Thu 11:05:00 AM 42.8569 84.3987 64° Northeast  Level Estimated
Thu 11:06:00 AM 42.9043 84.5304 64° Northeast  Level Estimated
Thu 11:07:00 AM 42.9516 84.6623 64° Northeast  Level Estimated
Thu 11:08:00 AM 42.9987 84.7944 64° Northeast  Level Estimated
Thu 11:09:00 AM 43.0457 84.9266 64° Northeast  Level Estimated
Thu 11:10:00 AM 43.0925 85.0591 64° Northeast  Level Estimated
Thu 11:11:00 AM 43.1391 85.1918 64° Northeast  Level Estimated
Thu 11:12:00 AM 43.1856 85.3247 64° Northeast  Level Estimated
Thu 11:13:00 AM 43.2320 85.4578 64° Northeast  Level Estimated
Thu 11:14:00 AM 43.2782 85.5911 65° Northeast  Level Estimated
Thu 11:15:00 AM 43.3242 85.7246 65° Northeast  Level Estimated
Thu 11:16:00 AM 43.3701 85.8583 65° Northeast  Level Estimated
Thu 11:17:00 AM 43.4159 85.9922 65° Northeast  Level Estimated
Thu 11:18:00 AM 43.4614 86.1263 65° Northeast  Level Estimated
Thu 11:19:00 AM 43.5068 86.2606 65° Northeast  Level Estimated
Thu 11:20:00 AM 43.5521 86.3951 65° Northeast  Level Estimated
Thu 11:21:00 AM 43.5972 86.5298 65° Northeast  Level Estimated
Thu 11:22:00 AM 43.6421 86.6647 65° Northeast  Level Estimated
Thu 11:23:00 AM 43.6869 86.7999 65° Northeast  Level Estimated
Thu 11:24:00 AM 43.7316 86.9352 65° Northeast  Level Estimated
Thu 11:25:00 AM 43.7760 87.0707 66° East  Level Estimated
Thu 11:26:00 AM 43.8203 87.2064 66° East  Level Estimated
Thu 11:27:00 AM 43.8645 87.3423 66° East  Level Estimated
Thu 11:28:00 AM 43.9071 87.4742 66° East  Level Estimated
Thu 11:29:00 AM 43.9071 87.4742 144° Southeast  Level Estimated
Thu 11:30:00 AM 43.9071 87.4742 144° Southeast  Level Estimated
Thu 11:31:00 AM 43.9071 87.4742 144° Southeast  Level Estimated
Thu 11:32:00 AM 43.9071 87.4742 144° Southeast  Level Estimated
Thu 11:33:00 AM 43.9071 87.4742 144° Southeast  Level Estimated
Thu 11:34:00 AM 43.9071 87.4742 144° Southeast  Level Estimated
Thu 11:35:00 AM 43.9071 87.4742 144° Southeast  Level Estimated
Thu 11:36:00 AM 43.9071 87.4742 144° Southeast  Level Estimated
Thu 11:37:00 AM 43.9071 87.4742 144° Southeast  Level Estimated
Thu 11:38:00 AM 43.9071 87.4742 144° Southeast  Level Estimated
Thu 11:39:00 AM 43.9071 87.4742 144° Southeast  Level Estimated
Thu 11:40:00 AM 43.9071 87.4742 144° Southeast  Level Estimated
Thu 11:41:00 AM 43.9071 87.4742 144° Southeast  Level Estimated
Thu 11:42:00 AM 43.9071 87.4742 144° Southeast  Level Estimated
Thu 11:43:00 AM 43.9071 87.4742 144° Southeast  Level Estimated
Thu 11:44:00 AM 43.9071 87.4742 144° Southeast  Level Estimated

Login

Don't have an account? Register now (free) for customized features, flight alerts, and more!